Choix d'un mois et d'une année:    

Climatologie mensuelle : Janvier 2019

Jour Température Vent Pluie Humidité Pression Radiations solaires
min moy max moyen rafale Secteur Max (W/m²) Durée
01/01/2019 5 5.9 6.8 5.6 19.2 SSO 0.5 92.5 1032.7 133.4 0h00
02/01/2019 -0.9 3.4 5.1 5.1 24 SO 0 78.1 1036.5 279.9 0h20
03/01/2019 -3.8 0.6 4.4 0.6 4.8 OSO 0 90 1039.2 249 0h45
04/01/2019 -1.6 2.3 4.6 3.8 16.8 O 0 83.8 1037.8 367.8 3h20
05/01/2019 1.5 3.5 5.5 6.6 19.2 SSO 1 91.2 1033.8 88.2 0h00
06/01/2019 3 3.9 5.2 4.9 14.4 SSO 0 88.4 1034.5 157 0h00
07/01/2019 2.6 4.3 7.8 3.5 19.2 S 0 86.3 1033.7 351.5 0h20
08/01/2019 3.3 5.5 7 11.6 28.8 SSO 2.1 87.7 1021.7 344.7 0h45
09/01/2019 2.1 3.5 5.9 9.7 28.8 SO 0 78.3 1019.2 416.9 4h25
10/01/2019 -1.6 1 3.5 3.5 14.4 O 0 76.3 1025.6 273.9 1h25
11/01/2019 -2.2 0.3 3.2 3 9.6 S 0.5 93.8 1027 76 0h00
12/01/2019 3.5 5 7 8.4 24 S 0.5 91.8 1023.4 82.3 0h00
13/01/2019 6.4 7.9 9.4 13.6 33.6 S 1.6 93.1 1012.2 102.7 0h00
14/01/2019 1.8 5.3 8.4 6.7 21.6 SSO 0 84.7 1016.2 369 1h45
15/01/2019 2.5 4.9 6.8 5.1 14.4 S 0 85.4 1023 104.4 0h00
16/01/2019 3 4.9 6.5 6.4 19.2 ESE 0 77.3 1014 296.1 4h05
17/01/2019 0.3 4.5 7.2 10.7 33.6 SSO 4.2 85.9 1009.6 381.7 1h10
18/01/2019 -3.9 0.2 5.8 1.4 12 NE 0 84.9 1019.9 447.2 4h15
19/01/2019 -5.3 -1 5.5 2.4 12 O 0 81.5 1015.8 367.5 6h55
20/01/2019 -4.1 -1.2 3.1 3 9.6 N 0 78.3 1015.9 353.8 5h00
Moyennes 0.6 3.2 5.9 5.8 - - - 85.5 1024.6 262.2 -
Total - - - - - - 10.4 - - - 34h30


Nombre de jours
Pluie Gel Chaleur
avec pluie : 7 avec gelée : 8 avec chaleur (>=30): 0
avec plus de 1mm : 4 avec forte gelée (<=-5): 1 avec canicule (>=35): 0
avec plus de 5mm : 0 sans dégel : 0
avec plus de 10mm : 0

Répartition des vents
Direction Fréquence
N 2.2
NNE 0
NE 3.4
ENE 0
E 3.8
ESE 4.2
SE 4.3
SSE 6.1
S 21.5
SSO 21.5
SO 11.4
OSO 7.9
SSO 8.6
ONO 2.8
NO 1.1
NNO 1.1

Radiations solaires mensuelles : Janvier 2019

Jour Ciel limpide Ciel laiteux Ciel nuageux Ciel couvert Durée
Durée % Durée % Durée % Durée % du jour
01/01/2019 0h00 0 0h00 0 0h15 3 6h45 81.5 8h17
02/01/2019 0h20 4 0h20 4 2h30 30.1 3h40 44.1 8h19
03/01/2019 0h45 9 0h20 4 3h15 39 2h40 32 8h20
04/01/2019 3h20 39.9 0h30 6 1h45 21 1h10 14 8h21
05/01/2019 0h00 0 0h00 0 0h00 0 6h40 79.7 8h22
06/01/2019 0h00 0 0h00 0 4h05 48.6 2h45 32.7 8h24
07/01/2019 0h20 4 0h05 1 3h00 35.6 3h30 41.6 8h25
08/01/2019 0h45 8.9 0h30 5.9 2h50 33.5 3h00 35.5 8h27
09/01/2019 4h25 52.2 0h30 5.9 1h35 18.7 0h25 4.9 8h28
10/01/2019 1h25 16.7 0h45 8.8 2h15 26.5 2h20 27.5 8h30
11/01/2019 0h00 0 0h00 0 0h10 2 6h50 80.1 8h32
12/01/2019 0h00 0 0h00 0 0h00 0 7h05 82.7 8h34
13/01/2019 0h00 0 0h00 0 0h00 0 7h00 81.4 8h36
14/01/2019 1h45 20.3 0h35 6.8 1h40 19.3 1h45 20.3 8h38
15/01/2019 0h00 0 0h05 1 1h15 14.4 6h15 72.1 8h40
16/01/2019 4h05 46.9 1h55 22 1h10 13.4 0h00 0 8h42
17/01/2019 1h10 13.3 0h10 1.9 1h35 18.1 4h15 48.6 8h45
18/01/2019 4h15 48.4 0h15 2.8 2h05 23.7 0h40 7.6 8h47
19/01/2019 6h55 78.4 0h00 0 0h15 2.8 0h00 0 8h49
20/01/2019 5h00 56.4 0h25 4.7 1h55 21.6 0h05 0.9 8h52
Total 34h30 19.9 6h25 5.8 31h35 28.6 66h50 60.6 -